CGL3 weather

Bala/Gibson Lake Seaplane Base
Ontario, Canada

Public forecast

Using degrees Celsius for public forecast. Weather courtesy of forecast.io.

Closest aviation weather report (METAR) to Bala/Gibson Lake Seaplane Base

Closest report is Muskoka Airport, 18.0 nm (33.4 km) E. Retrieved 2019/11/16 00:00 UTC (26 minutes ago):

CYQA 160000Z AUTO 35007G15KT 9SM CLR M06/M14 A3032 RMK SLP284

Closest aviation forecast (TAF) to Bala/Gibson Lake Seaplane Base

Closest forecast is Muskoka Airport, 18.0 nm (33.4 km) E. Retrieved 2019/11/15 20:00 UTC (4 hours ago):

TAF CYQA 151938Z 1520/1603 32012G22KT P6SM BKN025 TEMPO 1520/1523 21/2SM -SHSN OVC020 PROB30 1520/1523 11/2SM -SHSN VV012 FM152300 36010G20KT P6SM SCT025 BECMG 1601/1603 35008KT RMK FCST BASED ON AUTO OBS NXT FCST WILL BE ISSUED AT 161245Z